Time;durP1;ratioP1;P1;durP2;ratioP2;P2;SDS_P1;SDS_P2;PMS_P1;PMS_P2;Temp;Humidity;BMP_temperature;BMP_pressure;BME280_temperature;BME280_humidity;BME280_pressure;Samples;Min_cycle;Max_cycle;Signal;HPM_P1;HPM_P2
2023/04/21 00:00:01;;;;;;;49.23;25.77;;;4.00;99.90;;;;;;5036293;28;20189;-83
2023/04/21 00:02:27;;;;;;;42.43;26.20;;;4.00;99.90;;;;;;5036585;28;20250;-83
2023/04/21 00:04:55;;;;;;;38.63;23.20;;;4.00;99.90;;;;;;5033042;28;20462;-83
2023/04/21 00:07:21;;;;;;;27.77;16.20;;;4.00;99.90;;;;;;5036326;28;20416;-83
2023/04/21 00:09:47;;;;;;;33.65;17.73;;;4.10;99.90;;;;;;5017551;28;20220;-83
2023/04/21 00:12:12;;;;;;;35.10;18.03;;;4.10;99.90;;;;;;5037457;28;20205;-83
2023/04/21 00:14:38;;;;;;;42.87;22.17;;;4.10;99.90;;;;;;5036851;28;20778;-83
2023/04/21 00:17:04;;;;;;;40.83;21.88;;;4.20;99.90;;;;;;5039014;28;20200;-83
2023/04/21 00:19:30;;;;;;;39.70;21.47;;;4.20;99.90;;;;;;5040125;28;20663;-84
2023/04/21 00:21:57;;;;;;;30.10;17.03;;;4.20;99.90;;;;;;5037602;28;20826;-83
2023/04/21 00:24:26;;;;;;;35.85;17.80;;;4.30;99.90;;;;;;5038865;28;20205;-84
2023/04/21 00:26:51;;;;;;;30.70;17.52;;;4.30;99.90;;;;;;5038593;28;20199;-84
2023/04/21 00:29:17;;;;;;;31.10;18.87;;;4.40;99.90;;;;;;5038303;28;20178;-84
2023/04/21 00:31:42;;;;;;;36.83;19.70;;;4.40;99.90;;;;;;5033775;28;20848;-83
2023/04/21 00:34:08;;;;;;;34.37;19.83;;;4.50;99.90;;;;;;5032171;28;20678;-83
2023/04/21 00:36:33;;;;;;;32.20;16.37;;;4.50;99.90;;;;;;5032411;28;20189;-83
2023/04/21 00:39:02;;;;;;;25.37;14.23;;;4.40;99.90;;;;;;5033692;28;20185;-83
2023/04/21 00:41:29;;;;;;;28.63;15.95;;;4.40;99.90;;;;;;5032353;28;20264;-83
2023/04/21 00:44:06;;;;;;;32.78;18.10;;;4.20;99.90;;;;;;5034471;28;20236;-83
2023/04/21 00:46:32;;;;;;;30.38;18.23;;;4.20;99.90;;;;;;5031950;28;20200;-83
2023/04/21 00:48:59;;;;;;;38.17;19.65;;;4.10;99.90;;;;;;5034784;28;20190;-83
2023/04/21 00:51:28;;;;;;;30.95;17.88;;;4.10;99.90;;;;;;5017322;28;20205;-83
2023/04/21 00:53:55;;;;;;;30.17;18.38;;;4.10;99.90;;;;;;5014412;28;20174;-84
2023/04/21 00:56:21;;;;;;;32.33;17.85;;;4.00;99.90;;;;;;5036005;28;20249;-83
2023/04/21 00:58:48;;;;;;;36.60;17.88;;;4.10;99.90;;;;;;5026729;28;20181;-83
2023/04/21 01:01:13;;;;;;;35.20;18.17;;;4.20;99.90;;;;;;5019814;28;20196;-84
2023/04/21 01:03:40;;;;;;;28.43;17.60;;;4.20;99.90;;;;;;5031353;28;20221;-81
2023/04/21 01:06:06;;;;;;;30.75;17.25;;;4.10;99.90;;;;;;5032210;28;20268;-82
2023/04/21 01:08:32;;;;;;;30.38;16.73;;;7.20;99.90;;;;;;5034054;28;20199;-83
2023/04/21 01:10:57;;;;;;;32.47;18.33;;;4.30;99.90;;;;;;5030613;28;20214;-83
2023/04/21 01:13:23;;;;;;;29.63;16.27;;;4.40;99.90;;;;;;5033771;28;20507;-83
2023/04/21 01:15:49;;;;;;;32.77;17.53;;;4.50;99.90;;;;;;5016113;28;20205;-83
2023/04/21 01:18:15;;;;;;;40.10;19.60;;;3.40;99.90;;;;;;5034747;28;20190;-83
2023/04/21 01:20:43;;;;;;;33.60;19.63;;;4.20;99.90;;;;;;5033247;28;20267;-83
2023/04/21 01:23:09;;;;;;;39.45;19.17;;;4.40;99.90;;;;;;5034012;28;20206;-83
2023/04/21 01:25:35;;;;;;;35.13;18.80;;;4.50;99.90;;;;;;5016496;28;20205;-83
2023/04/21 01:28:01;;;;;;;42.57;22.57;;;4.80;99.90;;;;;;5016468;28;20538;-83
2023/04/21 01:30:26;;;;;;;29.97;17.07;;;4.80;99.90;;;;;;5029874;28;20255;-83
2023/04/21 01:32:52;;;;;;;33.17;17.77;;;4.90;99.90;;;;;;5034887;28;20432;-83
2023/04/21 01:35:17;;;;;;;35.07;18.83;;;5.00;99.90;;;;;;5031800;28;20213;-82
2023/04/21 01:37:43;;;;;;;36.33;18.87;;;5.00;99.90;;;;;;5033267;28;20221;-82
2023/04/21 01:40:09;;;;;;;34.07;19.13;;;5.10;99.90;;;;;;5017705;28;20181;-83
2023/04/21 01:42:37;;;;;;;35.30;20.70;;;5.10;99.90;;;;;;5037836;28;20190;-81
2023/04/21 01:45:04;;;;;;;34.28;19.40;;;5.10;99.90;;;;;;5034014;28;20457;-82
2023/04/21 01:47:30;;;;;;;38.97;19.88;;;5.10;99.90;;;;;;5032375;28;20537;-82
2023/04/21 01:49:55;;;;;;;36.47;19.53;;;5.10;99.90;;;;;;5034598;28;20177;-81
2023/04/21 01:52:21;;;;;;;237.77;33.07;;;4.90;99.90;;;;;;5034378;28;20691;-82
2023/04/21 01:54:47;;;;;;;371.40;40.83;;;4.80;99.90;;;;;;5030735;28;20255;-82
2023/04/21 01:57:12;;;;;;;64.93;22.77;;;4.50;99.90;;;;;;5031558;28;20534;-81
2023/04/21 01:59:38;;;;;;;41.93;20.97;;;4.30;99.90;;;;;;5026677;28;20189;-82
2023/04/21 02:02:04;;;;;;;295.23;34.90;;;4.30;99.90;;;;;;5033162;28;20222;-82
2023/04/21 02:04:29;;;;;;;38.90;20.50;;;4.20;99.90;;;;;;5028720;28;20480;-82
2023/04/21 02:06:55;;;;;;;37.53;19.03;;;4.20;99.90;;;;;;5033039;28;20647;-82
2023/04/21 02:09:20;;;;;;;36.93;19.23;;;4.00;99.90;;;;;;5012319;28;20251;-81
2023/04/21 02:11:46;;;;;;;38.20;21.50;;;3.90;99.90;;;;;;5019020;28;20210;-82
2023/04/21 02:14:12;;;;;;;33.43;20.37;;;3.80;99.90;;;;;;5035547;28;20190;-81
2023/04/21 02:16:37;;;;;;;37.97;19.30;;;3.90;99.90;;;;;;5031770;28;20686;-82
2023/04/21 02:19:03;;;;;;;35.50;17.70;;;3.90;99.90;;;;;;5033752;28;20304;-82
2023/04/21 02:21:28;;;;;;;28.83;17.80;;;3.80;99.90;;;;;;5033814;28;20189;-82
2023/04/21 02:23:57;;;;;;;30.70;17.70;;;3.70;99.90;;;;;;5034736;28;20185;-82
2023/04/21 02:26:23;;;;;;;35.42;19.25;;;3.70;99.90;;;;;;5034578;28;20196;-81
2023/04/21 02:28:50;;;;;;;44.13;20.27;;;3.70;99.90;;;;;;5018648;28;20218;-81
2023/04/21 02:31:16;;;;;;;40.65;20.42;;;3.70;99.90;;;;;;5037762;28;20194;-81
2023/04/21 02:33:42;;;;;;;37.88;21.75;;;3.80;99.90;;;;;;5034783;28;20174;-82
2023/04/21 02:36:07;;;;;;;43.70;22.80;;;3.80;99.90;;;;;;5036732;28;20190;-81
2023/04/21 02:38:33;;;;;;;74.77;25.57;;;3.80;99.90;;;;;;5038261;28;20591;-82
2023/04/21 02:40:58;;;;;;;180.90;33.87;;;3.80;99.90;;;;;;5036395;28;20174;-81
2023/04/21 02:43:24;;;;;;;78.13;25.50;;;3.70;99.90;;;;;;5042257;28;20174;-81
2023/04/21 02:45:50;;;;;;;35.13;18.67;;;3.70;99.90;;;;;;5039783;28;20217;-81
2023/04/21 02:48:19;;;;;;;38.30;20.37;;;3.70;99.90;;;;;;5039039;28;20930;-82
2023/04/21 02:50:45;;;;;;;39.90;21.10;;;3.60;99.90;;;;;;5038987;28;20193;-82
2023/04/21 02:53:10;;;;;;;39.77;21.30;;;3.60;99.90;;;;;;5038843;28;20240;-83
2023/04/21 02:55:36;;;;;;;39.40;21.43;;;3.60;99.90;;;;;;5039235;28;20201;-82
2023/04/21 02:58:01;;;;;;;38.37;22.00;;;3.60;99.90;;;;;;5040007;28;20270;-82
2023/04/21 03:00:27;;;;;;;33.80;20.00;;;3.60;99.90;;;;;;5029806;28;20186;-82
2023/04/21 03:02:52;;;;;;;29.77;15.67;;;3.60;99.90;;;;;;5043438;28;20212;-82
2023/04/21 03:05:18;;;;;;;37.57;20.03;;;3.40;99.90;;;;;;5045988;28;20214;-82
2023/04/21 03:07:44;;;;;;;36.17;17.60;;;3.30;99.90;;;;;;5044764;28;20243;-82
2023/04/21 03:10:10;;;;;;;35.63;18.00;;;3.30;99.90;;;;;;5043979;28;20281;-81
2023/04/21 03:12:36;;;;;;;92.87;22.77;;;3.20;99.90;;;;;;5046104;28;20174;-81
2023/04/21 03:15:02;;;;;;;38.83;19.80;;;3.20;99.90;;;;;;5025373;28;20194;-81
2023/04/21 03:17:28;;;;;;;44.10;19.90;;;3.20;99.90;;;;;;5045282;28;20636;-82
2023/04/21 03:19:53;;;;;;;43.97;20.63;;;3.20;99.90;;;;;;5044181;28;20201;-82
2023/04/21 03:22:19;;;;;;;37.67;19.60;;;3.30;99.90;;;;;;5027673;28;20190;-82
2023/04/21 03:24:44;;;;;;;34.97;20.47;;;3.30;99.90;;;;;;5044169;28;20204;-82
2023/04/21 03:27:10;;;;;;;35.70;17.70;;;3.30;99.90;;;;;;5046082;28;20621;-81
2023/04/21 03:29:35;;;;;;;57.93;23.20;;;4.20;99.90;;;;;;5045805;28;20584;-81
2023/04/21 03:32:01;;;;;;;38.10;19.50;;;3.30;99.90;;;;;;5042671;28;20210;-81
2023/04/21 03:34:26;;;;;;;29.70;16.27;;;3.30;99.90;;;;;;5043049;28;20282;-82
2023/04/21 03:36:52;;;;;;;33.10;19.20;;;3.40;99.90;;;;;;5046702;28;20233;-82
2023/04/21 03:39:17;;;;;;;34.70;16.83;;;3.40;99.90;;;;;;5045233;28;20208;-81
2023/04/21 03:41:43;;;;;;;70.27;22.30;;;3.40;99.90;;;;;;5041770;28;20585;-81
2023/04/21 03:44:08;;;;;;;24.60;15.73;;;3.40;99.90;;;;;;5040284;28;20203;-82
2023/04/21 03:46:34;;;;;;;26.87;15.93;;;3.30;99.90;;;;;;5037718;28;20178;-82
2023/04/21 03:49:00;;;;;;;33.53;17.80;;;3.30;99.90;;;;;;5038231;28;20193;-82
2023/04/21 03:51:26;;;;;;;28.03;15.37;;;3.30;99.90;;;;;;5020759;28;20298;-82
2023/04/21 03:56:19;;;;;;;204.93;24.63;;;3.40;99.90;;;;;;5044902;28;20478;-87
2023/04/21 03:58:45;;;;;;;47.57;16.40;;;3.30;99.90;;;;;;5048176;28;20181;-87
2023/04/21 04:01:10;;;;;;;59.77;17.70;;;3.30;99.90;;;;;;5047158;28;20177;-88
2023/04/21 04:03:36;;;;;;;91.27;20.03;;;;;;;;;;5048269;28;20214;-88
2023/04/21 04:06:02;;;;;;;119.40;22.80;;;2.90;99.90;;;;;;5027823;28;20200;-88
2023/04/21 04:08:29;;;;;;;42.13;17.90;;;2.80;99.90;;;;;;5034304;28;20478;-88
2023/04/21 04:10:55;;;;;;;44.72;19.38;;;2.70;99.90;;;;;;5027195;28;20591;-88
2023/04/21 04:13:21;;;;;;;58.80;21.00;;;2.70;99.90;;;;;;5042018;28;20201;-87
2023/04/21 04:15:49;;;;;;;37.60;20.03;;;2.70;99.90;;;;;;5047048;28;20184;-87
2023/04/21 04:18:14;;;;;;;41.33;20.48;;;2.80;99.90;;;;;;5040355;28;20563;-87
2023/04/21 04:20:40;;;;;;;33.53;16.27;;;;;;;;;;5034838;28;20300;-88
2023/04/21 04:23:06;;;;;;;32.20;16.30;;;;;;;;;;5047152;28;20186;-87
2023/04/21 04:25:33;;;;;;;34.92;16.25;;;2.80;99.90;;;;;;5030976;28;20460;-86
2023/04/21 04:27:58;;;;;;;39.30;17.40;;;2.80;99.90;;;;;;5042798;28;20181;-87
2023/04/21 04:30:27;;;;;;;44.50;20.42;;;2.90;99.90;;;;;;5033176;28;20719;-87
2023/04/21 04:32:52;;;;;;;526.28;52.47;;;3.10;99.90;;;;;;5033169;28;20670;-88
2023/04/21 04:35:18;;;;;;;327.77;36.50;;;3.00;99.90;;;;;;5030057;28;20204;-88
2023/04/21 04:37:44;;;;;;;377.70;36.03;;;2.80;99.90;;;;;;5028887;28;20204;-86
2023/04/21 04:40:11;;;;;;;100.57;22.87;;;2.80;99.90;;;;;;5027689;28;20166;-87
2023/04/21 04:42:38;;;;;;;146.18;23.60;;;2.80;99.90;;;;;;5032556;28;20455;-88
2023/04/21 04:45:05;;;;;;;34.28;16.88;;;2.70;99.90;;;;;;5020721;28;20200;-88
2023/04/21 04:47:30;;;;;;;71.50;21.25;;;3.00;99.90;;;;;;5019652;28;20177;-88
2023/04/21 04:49:56;;;;;;;81.73;22.20;;;;;;;;;;5027868;28;20182;-89
2023/04/21 04:52:22;;;;;;;150.10;26.60;;;;;;;;;;5032359;28;20205;-89
2023/04/21 04:54:48;;;;;;;39.53;20.10;;;;;;;;;;5046014;28;20463;-88
2023/04/21 04:57:14;;;;;;;128.13;23.43;;;;;;;;;;5032627;28;20459;-88
2023/04/21 04:59:40;;;;;;;130.68;25.70;;;3.50;99.90;;;;;;5037489;28;20471;-88
2023/04/21 05:02:06;;;;;;;153.00;25.63;;;3.70;99.90;;;;;;5043189;28;20571;-88
2023/04/21 05:04:33;;;;;;;168.57;26.58;;;3.60;99.90;;;;;;5025157;28;20201;-87
2023/04/21 05:06:59;;;;;;;244.60;35.42;;;3.80;99.90;;;;;;5024314;28;20199;-87
2023/04/21 05:09:24;;;;;;;89.77;22.57;;;4.20;99.90;;;;;;5027275;28;20189;-88
2023/04/21 05:11:50;;;;;;;97.30;24.00;;;;;;;;;;5030391;28;20287;-88
2023/04/21 05:14:17;;;;;;;102.20;23.45;;;4.70;99.90;;;;;;5031908;28;20451;-87
2023/04/21 05:16:43;;;;;;;51.90;18.55;;;4.80;99.90;;;;;;5026145;28;20177;-86
2023/04/21 05:19:10;;;;;;;231.83;24.87;;;4.90;99.90;;;;;;5017802;28;20581;-88
2023/04/21 05:21:36;;;;;;;124.47;18.38;;;4.80;99.90;;;;;;5019930;28;20174;-87
2023/04/21 05:24:01;;;;;;;75.27;17.30;;;4.70;99.90;;;;;;5039161;28;20709;-87
2023/04/21 05:26:28;;;;;;;147.03;21.77;;;4.70;99.90;;;;;;5037910;28;20285;-86
2023/04/21 05:28:55;;;;;;;107.97;19.33;;;4.60;99.90;;;;;;5026341;28;20185;-86
2023/04/21 05:31:22;;;;;;;50.42;16.48;;;4.40;99.90;;;;;;5041430;28;20205;-86
2023/04/21 05:33:47;;;;;;;47.10;17.88;;;4.40;99.90;;;;;;5026120;28;20201;-86
2023/04/21 05:36:13;;;;;;;42.50;17.87;;;4.30;99.90;;;;;;5021925;28;20188;-85
2023/04/21 05:38:39;;;;;;;82.40;20.77;;;4.30;99.90;;;;;;5038903;28;20193;-86
2023/04/21 05:41:05;;;;;;;64.80;18.50;;;4.40;99.90;;;;;;5023377;28;20192;-85
2023/04/21 05:43:33;;;;;;;33.37;17.80;;;4.30;99.90;;;;;;5025914;28;20217;-86
2023/04/21 05:46:08;;;;;;;29.92;16.92;;;4.40;99.90;;;;;;5031756;28;20204;-86
2023/04/21 05:48:34;;;;;;;33.17;18.77;;;4.80;99.90;;;;;;5022486;28;20216;-85
2023/04/21 05:51:14;;;;;;;30.92;16.80;;;4.80;99.90;;;;;;5026590;28;20204;-86
2023/04/21 05:53:41;;;;;;;32.33;16.45;;;4.90;99.90;;;;;;5021132;28;21863;-86
2023/04/21 05:56:11;;;;;;;31.23;15.73;;;5.00;99.90;;;;;;5019569;28;20197;-86
2023/04/21 05:58:37;;;;;;;41.20;17.52;;;5.10;99.90;;;;;;5025642;28;20181;-85
2023/04/21 06:01:05;;;;;;;61.92;18.75;;;5.10;99.90;;;;;;5035155;28;20224;-86
2023/04/21 06:03:30;;;;;;;147.05;27.02;;;5.20;99.90;;;;;;5024228;28;20208;-86
2023/04/21 06:05:57;;;;;;;298.30;35.13;;;;;;;;;;5027762;28;20523;-86
2023/04/21 06:08:23;;;;;;;217.40;30.73;;;5.60;99.90;;;;;;5037072;28;20948;-86
2023/04/21 06:10:48;;;;;;;183.03;28.60;;;6.00;99.90;;;;;;5041199;28;20288;-86
2023/04/21 06:13:14;;;;;;;352.00;38.27;;;6.30;99.90;;;;;;5028078;28;22077;-86
2023/04/21 06:15:39;;;;;;;230.87;30.53;;;6.30;99.90;;;;;;5021023;28;20198;-86
2023/04/21 06:18:05;;;;;;;172.80;26.50;;;6.20;99.90;;;;;;5033395;28;20181;-85
2023/04/21 06:20:31;;;;;;;205.37;27.37;;;5.90;99.90;;;;;;5019846;28;20181;-85
2023/04/21 06:22:56;;;;;;;245.23;28.53;;;5.70;99.90;;;;;;5019167;28;20169;-86
2023/04/21 06:25:22;;;;;;;200.33;27.87;;;5.50;99.90;;;;;;5034230;28;20869;-86
2023/04/21 06:27:48;;;;;;;243.67;28.20;;;;;;;;;;5028515;28;20169;-86
2023/04/21 06:30:14;;;;;;;240.55;33.13;;;5.30;99.90;;;;;;5019243;28;20523;-86
2023/04/21 06:32:39;;;;;;;293.07;34.70;;;5.40;99.90;;;;;;5020992;28;20184;-86
2023/04/21 06:35:05;;;;;;;126.90;22.53;;;;;;;;;;5022588;28;20660;-85
2023/04/21 06:37:31;;;;;;;154.20;25.60;;;5.80;99.90;;;;;;5025704;28;20341;-86
2023/04/21 06:39:56;;;;;;;195.10;27.10;;;6.40;99.90;;;;;;5040042;28;20243;-86
2023/04/21 06:42:22;;;;;;;193.83;22.83;;;;;;;;;;5038266;28;20326;-86
2023/04/21 06:44:48;;;;;;;170.27;24.45;;;7.20;99.90;;;;;;5026614;28;20212;-86
2023/04/21 06:47:15;;;;;;;182.37;23.23;;;;;;;;;;5027281;28;20190;-86
2023/04/21 06:49:41;;;;;;;127.75;20.10;;;7.60;99.90;;;;;;5035044;28;20192;-85
2023/04/21 06:52:07;;;;;;;109.23;17.33;;;7.70;99.90;;;;;;5044445;28;20201;-86
2023/04/21 06:54:33;;;;;;;162.73;18.50;;;;;;;;;;5041047;28;20518;-86
2023/04/21 06:56:59;;;;;;;95.88;19.10;;;8.80;99.90;;;;;;5042880;28;20176;-86
2023/04/21 06:59:25;;;;;;;50.27;14.20;;;;;;;;;;5030416;28;20181;-85
2023/04/21 07:01:51;;;;;;;54.35;15.65;;;11.10;99.90;;;;;;5039333;28;20193;-86
2023/04/21 07:04:20;;;;;;;43.97;13.13;;;11.80;99.90;;;;;;5031449;28;20201;-86
2023/04/21 07:06:47;;;;;;;55.58;15.43;;;11.80;99.90;;;;;;5038751;28;20444;-86
2023/04/21 07:09:13;;;;;;;29.48;12.43;;;;;;;;;;5037064;28;20242;-86
2023/04/21 07:11:39;;;;;;;21.23;12.07;;;;;;;;;;5022032;28;20933;-86
2023/04/21 07:14:05;;;;;;;34.53;12.63;;;;;;;;;;5024096;28;20467;-88
2023/04/21 07:16:31;;;;;;;27.80;10.87;;;;;;;;;;5021745;28;20950;-87
2023/04/21 07:18:57;;;;;;;14.40;9.67;;;;;;;;;;5022570;28;20439;-87
2023/04/21 07:21:23;;;;;;;11.67;9.43;;;;;;;;;;5041193;28;20436;-87
2023/04/21 07:23:49;;;;;;;19.83;13.57;;;;;;;;;;5039721;28;20458;-87
2023/04/21 07:26:16;;;;;;;14.40;10.80;;;;;;;;;;5040478;28;20427;-87
2023/04/21 07:28:42;;;;;;;16.57;12.97;;;;;;;;;;5027174;28;20435;-87
2023/04/21 07:31:08;;;;;;;26.63;13.07;;;;;;;;;;5028057;28;20531;-87
2023/04/21 07:33:34;;;;;;;21.17;13.53;;;;;;;;;;5019396;28;20471;-87
2023/04/21 07:36:00;;;;;;;18.00;13.87;;;13.80;99.90;;;;;;5045587;28;20420;-87
2023/04/21 07:38:26;;;;;;;22.13;15.43;;;12.70;99.90;;;;;;5030000;28;20431;-87
2023/04/21 07:40:52;;;;;;;20.60;13.27;;;12.70;99.90;;;;;;5047242;28;20236;-87
2023/04/21 07:43:18;;;;;;;36.20;17.07;;;12.30;99.90;;;;;;5033598;28;20448;-87
2023/04/21 07:45:45;;;;;;;24.98;17.42;;;;;;;;;;5021562;28;20192;-86
2023/04/21 07:48:10;;;;;;;22.50;15.43;;;12.10;99.90;;;;;;5024143;28;20299;-86
2023/04/21 07:50:36;;;;;;;27.17;15.37;;;12.30;99.90;;;;;;5031914;28;20401;-87
2023/04/21 07:53:02;;;;;;;22.97;15.73;;;12.90;99.90;;;;;;5029362;28;20184;-86
2023/04/21 07:55:28;;;;;;;22.70;16.23;;;12.90;99.90;;;;;;5027048;28;20513;-87
2023/04/21 07:57:54;;;;;;;26.27;16.17;;;;;;;;;;5037914;28;20438;-87
2023/04/21 08:00:21;;;;;;;24.97;16.70;;;12.90;99.90;;;;;;5035922;28;20173;-87
2023/04/21 08:02:47;;;;;;;22.03;14.70;;;;;;;;;;5021684;28;20732;-87
2023/04/21 08:05:13;;;;;;;25.30;16.00;;;;;;;;;;5027064;28;20483;-87
2023/04/21 08:07:39;;;;;;;23.50;15.97;;;14.40;99.90;;;;;;5020577;28;20436;-87
2023/04/21 08:10:06;;;;;;;21.47;15.73;;;14.50;99.90;;;;;;5031710;28;20435;-87
2023/04/21 08:12:32;;;;;;;22.03;15.87;;;;;;;;;;5018927;28;20689;-86
2023/04/21 08:14:58;;;;;;;21.67;16.10;;;;;;;;;;5038255;28;20451;-87
2023/04/21 08:17:24;;;;;;;21.37;14.60;;;;;;;;;;5037711;28;20436;-86
2023/04/21 08:19:50;;;;;;;19.30;14.00;;;;;;;;;;5020254;28;20432;-87
2023/04/21 08:22:16;;;;;;;21.57;14.40;;;;;;;;;;5038926;28;20928;-87
2023/04/21 08:24:42;;;;;;;19.10;14.37;;;;;;;;;;5016182;28;20455;-87
2023/04/21 08:27:08;;;;;;;16.60;12.93;;;17.00;99.90;;;;;;5015237;28;20446;-87
2023/04/21 08:29:34;;;;;;;21.10;12.50;;;;;;;;;;5011701;28;20533;-87
2023/04/21 08:32:00;;;;;;;16.93;12.17;;;;;;;;;;5015969;28;20476;-87
2023/04/21 08:34:26;;;;;;;16.40;11.97;;;;;;;;;;5014732;28;20455;-88
2023/04/21 08:36:52;;;;;;;16.77;11.67;;;;;;;;;;5034527;28;20439;-88
2023/04/21 08:39:18;;;;;;;13.93;11.27;;;;;;;;;;5023565;28;20454;-88
2023/04/21 08:41:44;;;;;;;11.97;10.50;;;;;;;;;;5036070;28;20490;-88
2023/04/21 08:44:13;;;;;;;13.53;9.87;;;;;;;;;;5015455;28;20682;-87
2023/04/21 08:46:39;;;;;;;14.30;10.73;;;;;;;;;;5033383;28;20436;-87
2023/04/21 08:49:06;;;;;;;12.50;10.20;;;;;;;;;;5012675;28;20426;-87
2023/04/21 08:51:32;;;;;;;10.70;9.33;;;;;;;;;;5008180;28;20463;-87
2023/04/21 08:53:58;;;;;;;12.53;10.10;;;;;;;;;;5030112;28;20899;-87
2023/04/21 08:56:27;;;;;;;11.37;8.43;;;;;;;;;;5015898;28;21590;-87
2023/04/21 08:58:53;;;;;;;13.30;10.07;;;;;;;;;;5017335;28;20462;-87
2023/04/21 09:01:19;;;;;;;13.43;10.50;;;;;;;;;;5032787;28;20938;-87
2023/04/21 09:03:45;;;;;;;11.07;9.83;;;;;;;;;;5021534;28;20513;-87
2023/04/21 09:06:11;;;;;;;12.03;9.80;;;;;;;;;;5032079;28;20439;-87
2023/04/21 09:08:40;;;;;;;11.33;10.10;;;25.20;70.50;;;;;;5036641;28;20469;-87
2023/04/21 09:11:07;;;;;;;12.93;9.83;;;;;;;;;;5016099;28;20458;-87
2023/04/21 09:13:34;;;;;;;11.63;9.13;;;24.60;70.70;;;;;;5020962;28;20460;-87
2023/04/21 09:16:01;;;;;;;10.43;9.23;;;24.60;69.90;;;;;;5032395;28;21325;-87
2023/04/21 09:18:34;;;;;;;9.77;7.90;;;23.60;72.50;;;;;;5009911;28;20937;-87
2023/04/21 09:21:05;;;;;;;15.13;9.87;;;23.60;73.30;;;;;;5023456;28;20432;-87
2023/04/21 09:23:31;;;;;;;9.77;7.50;;;;;;;;;;5031036;28;20518;-88
2023/04/21 09:25:57;;;;;;;10.30;7.23;;;;;;;;;;5030111;28;20527;-88
2023/04/21 09:28:31;;;;;;;10.00;7.53;;;23.00;77.20;;;;;;5021020;28;20451;-87
2023/04/21 09:30:57;;;;;;;10.50;8.13;;;;;;;;;;5032624;28;21033;-87
2023/04/21 09:33:23;;;;;;;8.83;7.80;;;;;;;;;;5018174;28;20477;-87
2023/04/21 09:35:49;;;;;;;10.33;7.50;;;;;;;;;;5019039;28;20834;-87
2023/04/21 09:38:15;;;;;;;9.63;8.27;;;;;;;;;;5011778;28;20432;-87
2023/04/21 09:40:41;;;;;;;8.70;7.70;;;;;;;;;;5030436;28;20440;-87
2023/04/21 09:43:07;;;;;;;9.10;7.23;;;;;;;;;;5010683;28;20431;-87
2023/04/21 09:45:33;;;;;;;9.87;7.90;;;;;;;;;;5026384;28;20585;-87
2023/04/21 09:48:01;;;;;;;9.70;8.33;;;22.10;76.10;;;;;;5028802;28;20523;-88
2023/04/21 09:50:27;;;;;;;10.87;8.40;;;22.80;79.20;;;;;;5022542;28;20428;-88
2023/04/21 09:52:55;;;;;;;11.43;7.43;;;22.80;76.60;;;;;;5034233;28;20432;-88
2023/04/21 09:55:27;;;;;;;15.03;8.60;;;21.70;77.20;;;;;;5029968;22;20542;-82
2023/04/21 09:58:01;;;;;;;12.20;8.80;;;21.10;83.70;;;;;;5022114;28;20468;-83
2023/04/21 10:00:27;;;;;;;13.67;9.13;;;20.50;81.00;;;;;;5021292;28;20433;-82
2023/04/21 10:02:56;;;;;;;9.50;7.70;;;20.60;82.00;;;;;;5020483;28;20497;-82
2023/04/21 10:05:21;;;;;;;11.03;7.07;;;20.70;83.80;;;;;;5017606;28;20448;-79
2023/04/21 10:07:48;;;;;;;8.60;7.33;;;20.40;85.90;;;;;;5015262;28;20464;-82
2023/04/21 10:10:27;;;;;;;12.47;8.50;;;20.80;85.80;;;;;;5023418;28;20174;-82
2023/04/21 10:12:53;;;;;;;11.20;7.73;;;21.60;81.70;;;;;;5021195;28;20437;-82
2023/04/21 10:15:33;;;;;;;9.80;8.33;;;21.20;83.70;;;;;;5020163;28;20461;-81
2023/04/21 10:18:15;;;;;;;10.20;7.43;;;21.20;85.00;;;;;;5017705;28;20480;-81
2023/04/21 10:20:52;;;;;;;13.17;9.17;;;20.20;86.20;;;;;;5020426;28;20448;-80
2023/04/21 10:23:30;;;;;;;11.40;8.83;;;18.50;90.40;;;;;;5018194;28;20448;-80
2023/04/21 10:26:09;;;;;;;13.30;9.30;;;17.60;94.70;;;;;;5022449;28;20463;-80
2023/04/21 10:28:45;;;;;;;14.17;9.10;;;16.40;97.10;;;;;;5025736;28;20550;-80
2023/04/21 10:31:18;;;;;;;14.00;9.43;;;16.10;99.90;;;;;;5005805;28;20460;-80
2023/04/21 10:34:12;;;;;;;12.83;8.00;;;15.80;99.90;;;;;;5018653;28;20464;-80
2023/04/21 10:36:56;;;;;;;15.33;9.37;;;15.60;99.90;;;;;;5022894;28;20509;-80
2023/04/21 10:39:36;;;;;;;12.17;8.50;;;15.60;99.90;;;;;;5019603;28;21115;-80
2023/04/21 10:42:23;;;;;;;17.50;12.00;;;15.90;99.90;;;;;;5021683;28;20436;-81
2023/04/21 10:44:58;;;;;;;14.80;10.90;;;16.40;99.90;;;;;;5023412;28;20472;-82
2023/04/21 10:47:40;;;;;;;17.13;10.17;;;16.50;99.90;;;;;;5009887;28;20454;-80
2023/04/21 10:50:24;;;;;;;18.50;11.80;;;16.60;99.90;;;;;;5024601;28;20459;-83
2023/04/21 10:52:58;;;;;;;14.80;11.00;;;16.70;99.90;;;;;;5025943;28;20440;-82
2023/04/21 10:55:28;;;;;;;18.10;11.60;;;16.70;99.90;;;;;;5024183;28;20460;-81
2023/04/21 10:57:54;;;;;;;17.90;11.93;;;16.40;99.90;;;;;;5023437;28;20433;-83
2023/04/21 11:00:22;;;;;;;16.27;12.03;;;16.50;99.90;;;;;;5010421;28;20432;-82
2023/04/21 11:03:00;;;;;;;16.40;12.13;;;16.30;99.90;;;;;;5023691;28;21005;-83
2023/04/21 11:05:33;;;;;;;18.93;12.87;;;16.20;99.90;;;;;;5020931;28;20523;-80
2023/04/21 11:08:13;;;;;;;19.13;12.70;;;16.10;99.90;;;;;;5022017;28;20452;-82
2023/04/21 11:10:42;;;;;;;18.20;11.83;;;16.40;99.90;;;;;;5021172;28;20456;-80
2023/04/21 11:13:08;;;;;;;18.60;10.20;;;16.50;99.90;;;;;;5021638;28;20493;-80
2023/04/21 11:15:33;;;;;;;17.77;11.10;;;16.50;99.90;;;;;;5002682;28;20463;-80
2023/04/21 11:17:59;;;;;;;19.33;12.93;;;;;;;;;;5023128;28;20202;-82
2023/04/21 11:20:26;;;;;;;17.30;12.60;;;;;;;;;;5028533;28;20265;-82
2023/04/21 11:22:55;;;;;;;18.00;12.00;;;16.70;99.90;;;;;;5013290;28;20488;-82
2023/04/21 11:25:21;;;;;;;19.07;11.97;;;;;;;;;;5010542;28;20823;-82
2023/04/21 11:27:54;;;;;;;21.17;13.23;;;16.70;99.90;;;;;;5027630;28;20503;-82
2023/04/21 11:30:21;;;;;;;15.70;10.47;;;16.70;99.90;;;;;;5026668;28;20441;-82
2023/04/21 11:32:53;;;;;;;17.43;11.73;;;16.60;99.90;;;;;;5025985;28;20496;-82
2023/04/21 11:35:19;;;;;;;22.50;11.60;;;16.60;99.90;;;;;;5027755;28;20889;-82
2023/04/21 11:37:45;;;;;;;19.87;12.33;;;;;;;;;;5027647;28;20444;-83
2023/04/21 11:40:11;;;;;;;18.63;12.13;;;17.70;99.90;;;;;;5029272;28;20186;-82
2023/04/21 11:42:37;;;;;;;17.07;12.63;;;;;;;;;;5028693;28;20460;-82
2023/04/21 11:45:03;;;;;;;13.60;9.70;;;18.10;99.90;;;;;;5024718;28;20450;-81
2023/04/21 11:47:29;;;;;;;15.90;11.63;;;;;;;;;;5025028;28;20439;-81
2023/04/21 11:49:59;;;;;;;18.30;12.10;;;18.80;99.90;;;;;;5026934;28;20550;-82
2023/04/21 11:52:36;;;;;;;15.47;11.13;;;18.90;99.90;;;;;;5028254;28;20469;-82
2023/04/21 11:55:14;;;;;;;13.60;10.37;;;18.60;99.90;;;;;;5027055;28;20472;-81
2023/04/21 11:57:41;;;;;;;20.63;12.90;;;;;;;;;;5026283;28;20429;-80
2023/04/21 12:00:14;;;;;;;17.47;11.17;;;17.40;99.90;;;;;;5027950;28;20857;-81
2023/04/21 12:02:40;;;;;;;21.43;11.30;;;;;;;;;;5026937;28;20725;-81
2023/04/21 12:05:06;;;;;;;20.13;13.77;;;;;;;;;;5025592;28;20491;-80
2023/04/21 12:07:33;;;;;;;19.50;13.20;;;18.50;99.90;;;;;;5029057;28;20424;-81
2023/04/21 12:10:01;;;;;;;22.37;13.97;;;18.40;99.90;;;;;;5017282;28;20873;-81
2023/04/21 12:12:27;;;;;;;21.90;14.80;;;;;;;;;;5025233;28;20468;-82
2023/04/21 12:14:53;;;;;;;21.80;13.63;;;17.70;99.90;;;;;;5012295;28;20459;-81
2023/04/21 12:17:19;;;;;;;17.17;11.63;;;;;;;;;;5026831;28;20440;-81
2023/04/21 12:19:45;;;;;;;22.57;15.10;;;;;;;;;;5024411;28;20464;-81
2023/04/21 12:22:13;;;;;;;20.83;14.03;;;17.80;99.90;;;;;;5025082;28;20440;-81
2023/04/21 12:24:39;;;;;;;20.30;14.80;;;17.40;99.90;;;;;;5027856;28;20459;-80
2023/04/21 12:27:05;;;;;;;21.03;14.80;;;17.40;99.90;;;;;;5026677;28;20463;-81
2023/04/21 12:29:34;;;;;;;17.70;12.53;;;;;;;;;;5024729;28;20433;-81
2023/04/21 12:32:00;;;;;;;19.87;12.53;;;17.00;99.90;;;;;;5027866;28;20524;-81
2023/04/21 12:34:26;;;;;;;18.83;13.63;;;;;;;;;;5021379;28;20460;-81
2023/04/21 12:36:52;;;;;;;18.40;12.90;;;;;;;;;;5022030;28;20424;-81
2023/04/21 12:39:18;;;;;;;19.93;12.07;;;;;;;;;;5004069;28;20799;-81
2023/04/21 12:41:46;;;;;;;16.53;10.00;;;17.80;99.90;;;;;;5009984;28;20831;-81
2023/04/21 12:44:12;;;;;;;15.10;11.17;;;18.00;99.90;;;;;;5010201;28;21344;-81
2023/04/21 12:46:38;;;;;;;14.30;10.27;;;;;;;;;;5022376;28;20441;-81
2023/04/21 12:49:06;;;;;;;13.77;9.90;;;;;;;;;;5024203;28;20583;-83
2023/04/21 12:51:32;;;;;;;18.17;11.20;;;17.60;99.90;;;;;;5024782;28;20477;-82
2023/04/21 12:53:58;;;;;;;14.30;10.70;;;17.60;99.90;;;;;;5022375;28;20487;-82
2023/04/21 12:56:24;;;;;;;13.63;9.37;;;;;;;;;;5025028;28;20436;-82
2023/04/21 12:58:50;;;;;;;17.57;10.63;;;;;;;;;;5027575;28;20182;-82